Tiempo atmosférico en la estación meteorológica de El Campillo, Huelva (415 m.)



Fecha
DESCASC
Temp. máxima en grados centígrados (hora)
DESCASC
Temp. mínima en grados centígrados (hora)
DESCASC
Temp. media en grados centígrados
DESCASC
Racha de viento máxima en m/sg (hora)
DESCASC
Velocidad máxima media en intervalos de 10 minutos(hora)
DESCASC
Precipitaciones diarias en mm
DESCASC
Precipitaciones de 00:00 a 06:00 en mm
DESCASC
Precipitaciones de 06:00 a 12:00 en mm
DESCASC
Precipitaciones de 12:00 a 18:00 en mm
DESCASC
Precipitaciones de 18:00 a 24:00 en mm
DESCASC
29-10-2020 25.1 (15:20) 14.5 (01:10) 19.8 6.11 (14:50) 3.33 (23:59) 0 0 0 0 0
28-10-2020 21.4 (16:50) 10.2 (03:00) 15.8 6.39 (22:20) 4.17 (22:20) 0 0 0 0 0
27-10-2020 18.2 (15:50) 7.8 (00:00) 13 6.67 (19:00) 5 (19:00) 0 0 0 0 0
26-10-2020 15.4 (15:50) 8.6 (00:00) 12 11.11 (14:30) 7.22 (14:50) 0 0 0 0 0
25-10-2020 17.8 (14:20) 9.8 (00:00) 13.8 12.22 (13:50) 7.5 (15:10) 4.6 0 0 0 4.6
24-10-2020 19.5 (16:30) 11.1 (00:00) 15.3 6.11 (16:10) 4.17 (16:10) 0 0 0 0 0
23-10-2020 18.4 (15:50) 10.1 (00:00) 14.3 8.33 (16:40) 5.83 (16:40) 0 0 0 0 0
22-10-2020 19.6 (15:10) 12.8 (00:00) 16.2 10.83 (17:20) 6.67 (17:20) 1 0.8 0 0.2 0
21-10-2020 20.3 (16:10) 14 (00:00) 17.1 12.5 (01:30) 7.78 (01:40) 19 0.4 0 0 18.6
20-10-2020 18.6 (13:00) 14.2 (00:00) 16.4 24.17 (18:50) 14.17 (19:00) 51.8 4.8 1.8 19.6 25.6
19-10-2020 25.9 (15:20) 14.1 (00:00) 20 19.17 (17:20) 9.72 (16:00) 0 0 0 0 0
18-10-2020 25 (16:20) 12 (00:00) 18.5 7.5 (12:20) 3.89 (18:20) 0 0 0 0 0
17-10-2020 22 (18:10) 10.5 (00:00) 16.3 6.67 (14:50) 3.33 (14:10) 0 0 0 0 0
16-10-2020 22.7 (16:50) 11.3 (00:00) 17 5.56 (19:40) 3.61 (19:40) 0 0 0 0 0
15-10-2020 21.8 (17:30) 9.8 (00:00) 15.8 7.5 (19:00) 5.28 (19:00) 0 0 0 0 0
14-10-2020 20.4 (16:30) 9.3 (00:00) 14.8 13.61 (17:20) 8.61 (07:50) 0 0 0 0 0
13-10-2020 26.6 (17:10) 13.6 (00:00) 20.1 8.61 (15:40) 4.44 (19:30) 0 0 0 0 0
12-10-2020 25.2 (17:00) 13.6 (00:00) 19.4 8.61 (11:50) 4.44 (17:30) 0 0 0 0 0
11-10-2020 28.9 (16:40) 15.7 (00:00) 22.3 6.67 (23:30) 3.61 (23:30) 0 0 0 0 0
10-10-2020 29 (15:50) 17.1 (00:00) 23.1 7.5 (19:20) 4.72 (00:50) 0 0 0 0 0
09-10-2020 30.4 (17:00) 17.2 (00:00) 23.8 6.11 (18:50) 4.17 (18:40) 0 0 0 0 0
08-10-2020 30.6 (15:50) 19.4 (00:00) 25 7.22 (15:50) 3.89 (19:10) 0 0 0 0 0
07-10-2020 31.1 (17:30) 18.3 (00:00) 24.7 6.39 (06:20) 4.44 (06:30) 0 0 0 0 0
06-10-2020 27.7 (17:30) 13.1 (00:00) 20.4 7.78 (16:30) 3.89 (18:00) 0 0 0 0 0
05-10-2020 22.1 (16:50) 10.2 (00:00) 16.2 10.56 (19:20) 7.22 (19:20) 0 0 0 0 0
04-10-2020 21.1 (16:50) 9 (00:00) 15.1 11.67 (18:20) 6.67 (18:20) 0 0 0 0 0
03-10-2020 19.5 (17:20) 8.1 (00:00) 13.8 11.11 (12:30) 7.5 (12:30) 0 0 0 0 0
02-10-2020 18.2 (16:20) 11.3 (00:00) 14.8 15 (15:40) 9.72 (18:50) 6.6 0 3.2 3.4 0
01-10-2020 25.1 (16:00) 11.4 (00:00) 18.3 10.28 (17:40) 7.22 (17:40) 0 0 0 0 0

Gráficas

Temp. máximas Temp. mínimas Temp. medias Precipitaciones Rachas de viento máximas Velocidades máximas media en intervalos de 10 minutos

Datos horarios

Fecha y hora oficial Temperatura (ºC) Velocidad del viento (km/h) Dirección del viento Racha (km/h) Dirección de racha Precipitación (mm) Presión (hPa) Tendencia (hPa) Humedad (%)
2020-10-30 23:00:00 17.4 5 Nordeste 7 Nordeste 0 -- -- 49
2020-10-30 22:00:00 17.2 0 Calma 5 Sur 0 -- -- 47
2020-10-30 21:00:00 18.6 3 Sur 6 Sudeste 0 -- -- 45
2020-10-30 20:00:00 18.9 4 Norte 7 Norte 0 -- -- 44
2020-10-30 19:00:00 20.3 0 Calma 3 Oeste 0 -- -- 42
2020-10-30 18:00:00 22.9 3 Noroeste 6 Oeste 0 -- -- 38
2020-10-30 17:00:00 24.1 4 Oeste 11 Oeste 0 -- -- 33
2020-10-30 16:00:00 24.6 3 Noroeste 8 Oeste 0 -- -- 31
2020-10-30 15:00:00 24.1 4 Sur 15 Sudoeste 0 -- -- 31
2020-10-30 14:00:00 24.4 4 Noroeste 10 Sudoeste 0 -- -- 30
2020-10-30 13:00:00 23.4 5 Nordeste 17 Este 0 -- -- 32
2020-10-30 12:00:00 22.6 6 Este 18 Este 0 -- -- 36
2020-10-30 11:00:00 21.6 8 Sudeste 30 Sudeste 0 -- -- 39
2020-10-30 10:00:00 19.5 8 Sudeste 21 Sudeste 0 -- -- 44
2020-10-30 09:00:00 17 7 Este 19 Este 0 -- -- 51
2020-10-30 08:00:00 15.6 9 Este 21 Este 0 -- -- 54
2020-10-30 07:00:00 16.2 9 Sudeste 21 Este 0 -- -- 52
2020-10-30 06:00:00 16.7 8 Este 22 Este 0 -- -- 50
2020-10-30 05:00:00 16.5 8 Sudeste 18 Sudeste 0 -- -- 51
2020-10-30 04:00:00 16.3 7 Este 17 Este 0 -- -- 52
2020-10-30 03:00:00 16.6 6 Este 14 Este 0 -- -- 49
2020-10-30 02:00:00 17 8 Este 15 Este 0 -- -- 47
2020-10-30 01:00:00 17.6 10 Este 22 Este 0 -- -- 45
2020-10-30 00:00:00 18 12 Nordeste 20 Este 0 -- -- 45
2020-10-29 23:00:00 18.7 10 Este 18 Este 0 -- -- 43
2020-10-29 22:00:00 18.7 8 Este 14 Este 0 -- -- 43
2020-10-29 21:00:00 19.1 4 Norte 8 Nordeste 0 -- -- 42
2020-10-29 20:00:00 20.1 4 Nordeste 8 Nordeste 0 -- -- 37
2020-10-29 19:00:00 21.2 5 Este 10 Sudeste 0 -- -- 34
2020-10-29 18:00:00 23.5 5 Sudeste 15 Sudeste 0 -- -- 30
2020-10-29 17:00:00 24.4 8 Este 15 Este 0 -- -- 27
2020-10-29 16:00:00 25 8 Este 19 Este 0 -- -- 27
2020-10-29 15:00:00 24.7 8 Este 22 Este 0 -- -- 30
2020-10-29 14:00:00 24 9 Este 19 Este 0 -- -- 34
2020-10-29 13:00:00 23.6 8 Este 21 Sudeste 0 -- -- 37
2020-10-29 12:00:00 21.9 10 Nordeste 20 Este 0 -- -- 47
2020-10-29 11:00:00 20.4 9 Este 18 Este 0 -- -- 52
2020-10-29 10:00:00 19.3 6 Nordeste 13 Nordeste 0 -- -- 58
2020-10-29 09:00:00 17.3 8 Nordeste 15 Nordeste 0 -- -- 64
2020-10-29 08:00:00 16.3 9 Nordeste 11 Nordeste 0 -- -- 68
2020-10-29 07:00:00 15.7 5 Nordeste 8 Nordeste 0 -- -- 73
2020-10-29 06:00:00 15.9 6 Nordeste 13 Este 0 -- -- 72
2020-10-29 05:00:00 16.3 8 Este 10 Este 0 -- -- 71
2020-10-29 04:00:00 16.1 8 Nordeste 9 Nordeste 0 -- -- 73
2020-10-29 03:00:00 15.7 10 Nordeste 12 Este 0 -- -- 77
2020-10-29 02:00:00 15.2 7 Este 12 Este 0 -- -- 82
2020-10-29 01:00:00 14.7 4 Norte 14 Nordeste 0 -- -- 83
2020-10-29 00:00:00 15.6 11 Norte 16 Nordeste 0 -- -- 78
2020-10-28 23:00:00 16 12 Nordeste 23 Nordeste 0 -- -- 75
2020-10-28 22:00:00 16.4 13 Norte 18 Norte 0 -- -- 72
2020-10-28 21:00:00 16.8 9 Nordeste 14 Norte 0 -- -- 68
2020-10-28 20:00:00 17.3 9 Nordeste 13 Norte 0 -- -- 66
2020-10-28 19:00:00 18.4 9 Norte 14 Norte 0 -- -- 62
2020-10-28 18:00:00 20.8 5 Noroeste 14 Norte 0 -- -- 53
2020-10-28 17:00:00 21.4 8 Norte 17 Norte 0 -- -- 50
2020-10-28 16:00:00 21 9 Noroeste 16 Noroeste 0 -- -- 50
2020-10-28 15:00:00 20.9 6 Norte 14 Noroeste 0 -- -- 49
2020-10-28 14:00:00 20.3 3 Nordeste 15 Nordeste 0 -- -- 48
2020-10-28 13:00:00 18.2 7 Norte 13 Norte 0 -- -- 52
2020-10-28 12:00:00 17.5 8 Norte 15 Norte 0 -- -- 53
2020-10-28 11:00:00 16.2 4 Sur 9 Sur 0 -- -- 57
2020-10-28 10:00:00 13.8 2 Norte 4 Norte 0 -- -- 71
2020-10-28 09:00:00 12.7 0 Calma 11 Nordeste 0 -- -- 76
2020-10-28 08:00:00 10.7 8 Nordeste 12 Nordeste 0 -- -- 81
2020-10-28 07:00:00 10.7 8 Nordeste 10 Nordeste 0 -- -- 77
2020-10-28 06:00:00 10.9 7 Nordeste 10 Norte 0 -- -- 75
2020-10-28 05:00:00 10.8 5 Nordeste 8 Nordeste 0 -- -- 75
2020-10-28 04:00:00 10.7 5 Norte 9 Norte 0 -- -- 75
2020-10-28 03:00:00 10.2 4 Norte 8 Nordeste 0 -- -- 77
2020-10-28 02:00:00 11.1 5 Nordeste 6 Nordeste 0 -- -- 73
2020-10-28 01:00:00 10.7 4 Norte 8 Nordeste 0 -- -- 74
2020-10-28 00:00:00 11.4 5 Nordeste 10 Norte 0 -- -- 70
2020-10-27 23:00:00 11.6 8 Nordeste 10 Nordeste 0 -- -- 69
2020-10-27 22:00:00 11.5 0 Calma 9 Norte 0 -- -- 68
2020-10-27 21:00:00 12.2 8 Norte 22 Norte 0 -- -- 66
2020-10-27 20:00:00 12.8 16 Norte 22 Norte 0 -- -- 63
2020-10-27 19:00:00 14.3 18 Norte 24 Norte 0 -- -- 55
2020-10-27 18:00:00 16.3 13 Norte 22 Noroeste 0 -- -- 46
2020-10-27 17:00:00 18.2 6 Oeste 18 Noroeste 0 -- -- 40
2020-10-27 16:00:00 18.2 5 Noroeste 12 Norte 0 -- -- 39
2020-10-27 15:00:00 17.6 8 Noroeste 19 Noroeste 0 -- -- 41
2020-10-27 14:00:00 17 5 Noroeste 15 Norte 0 -- -- 42
2020-10-27 13:00:00 15.8 6 Norte 16 Norte 0 -- -- 47
2020-10-27 12:00:00 14.5 6 Noroeste 16 Norte 0 -- -- 56
2020-10-27 11:00:00 13.3 8 Norte 13 Norte 0 -- -- 58
2020-10-27 10:00:00 12.3 0 Calma 3 Nordeste 0 -- -- 63
2020-10-27 09:00:00 10.3 3 Nordeste 5 Nordeste 0 -- -- 71
2020-10-27 08:00:00 8.5 3 Norte 5 Nordeste 0 -- -- 77
2020-10-27 07:00:00 7.8 3 Nordeste 5 Norte 0 -- -- 83
2020-10-27 06:00:00 8.2 5 Nordeste 8 Nordeste 0 -- -- 82
2020-10-27 05:00:00 8.6 5 Norte 11 Norte 0 -- -- 78
2020-10-27 04:00:00 8.3 10 Norte 13 Norte 0 -- -- 81
2020-10-27 03:00:00 8.5 8 Norte 14 Norte 0 -- -- 80
2020-10-27 02:00:00 7.8 6 Norte 10 Norte 0 -- -- 85
2020-10-27 01:00:00 8.6 5 Norte 8 Norte 0 -- -- 81
2020-10-27 00:00:00 9 5 Norte 6 Norte 0 -- -- 80
2020-10-26 23:00:00 9.6 4 Norte 5 Nordeste 0 -- -- 78
2020-10-26 22:00:00 9.6 2 Noroeste 9 Norte 0 -- -- 78
2020-10-26 21:00:00 10.1 2 Norte 7 Norte 0 -- -- 75
2020-10-26 20:00:00 10.6 5 Norte 9 Norte 0 -- -- 72
2020-10-26 19:00:00 12.2 5 Noroeste 24 Norte 0 -- -- 65
2020-10-26 18:00:00 14.2 12 Norte 35 Norte 0 -- -- 56
2020-10-26 17:00:00 15.3 20 Norte 37 Noroeste 0 -- -- 56
2020-10-26 16:00:00 15.1 24 Norte 33 Norte 0 -- -- 54
2020-10-26 15:00:00 15.2 22 Norte 40 Noroeste 0 -- -- 57
2020-10-26 14:00:00 14.9 25 Norte 34 Norte 0 -- -- 57
2020-10-26 13:00:00 14.2 19 Norte 31 Noroeste 0 -- -- 59
2020-10-26 12:00:00 13.3 16 Norte 29 Norte 0 -- -- 63
2020-10-26 11:00:00 11.8 9 Noroeste 32 Norte 0 -- -- 79
2020-10-26 10:00:00 11.3 11 Norte 18 Norte 0 -- -- 84
2020-10-26 09:00:00 9.7 7 Noroeste 14 Noroeste 0 -- -- 92
2020-10-26 08:00:00 8.8 5 Noroeste 10 Noroeste 0 -- -- 93
2020-10-26 07:00:00 9.3 6 Noroeste 17 Noroeste 0 -- -- 91
2020-10-26 06:00:00 10 10 Noroeste 21 Noroeste 0 -- -- 89
2020-10-26 05:00:00 10 13 Noroeste 20 Noroeste 0 -- -- 90
2020-10-26 04:00:00 10.3 8 Noroeste 22 Noroeste 0 -- -- 89
2020-10-26 03:00:00 10.8 15 Noroeste 28 Noroeste 0 -- -- 87
2020-10-26 02:00:00 11.2 7 Noroeste 25 Noroeste 0 -- -- 90
2020-10-26 01:00:00 12 16 Noroeste 28 Noroeste 0 -- -- 89
2020-10-26 00:00:00 12.9 16 Noroeste 26 Noroeste 0 -- -- 96
2020-10-25 23:00:00 13.3 12 Noroeste 28 Noroeste 0 -- -- 96
2020-10-25 22:00:00 13.4 10 Noroeste 33 Noroeste 0.6 -- -- 96
2020-10-25 21:00:00 13.8 15 Noroeste 32 Sudoeste 2.4 -- -- 95
2020-10-25 20:00:00 15.1 16 Sudoeste 35 Sudoeste 1.6 -- -- 95
2020-10-25 19:00:00 15.4 22 Sudoeste 42 Sudoeste 0 -- -- 93
2020-10-25 18:00:00 15.5 24 Sudoeste 43 Sudoeste 0 -- -- 90
2020-10-25 17:00:00 15.8 22 Sudoeste 41 Sudoeste 0 -- -- 86
2020-10-25 16:00:00 16.5 26 Sudoeste 42 Sudoeste 0 -- -- 79
2020-10-25 15:00:00 17.4 22 Sudoeste 39 Sudoeste 0 -- -- 71
2020-10-25 14:00:00 17.4 23 Sudoeste 44 Sur 0 -- -- 70
2020-10-25 13:00:00 16.6 20 Sudoeste 33 Sudoeste 0 -- -- 75
2020-10-25 12:00:00 15.4 14 Sudoeste 28 Sudoeste 0 -- -- 80
2020-10-25 11:00:00 14.6 14 Sudoeste 21 Sudoeste 0 -- -- 82
2020-10-25 10:00:00 12.7 6 Sur 13 Sur 0 -- -- 91
2020-10-25 09:00:00 11.2 3 Sur 6 Sudoeste 0 -- -- 94
2020-10-25 08:00:00 9.9 4 Sur 5 Sur 0 -- -- 92
2020-10-25 07:00:00 10.1 2 Sudoeste 3 Sudoeste 0 -- -- 90
2020-10-25 06:00:00 10.2 0 Calma 8 Noroeste 0 -- -- 89
2020-10-25 05:00:00 10.5 4 Norte 6 Norte 0 -- -- 89
2020-10-25 04:00:00 10.7 4 Norte 10 Nordeste 0 -- -- 89
2020-10-25 03:00:00 11 3 Norte 5 Nordeste 0 -- -- 89
2020-10-25 02:00:00 11.2 4 Norte 8 Norte 0 -- -- 87
2020-10-25 01:00:00 11.8 2 Noroeste 6 Noroeste 0 -- -- 80
2020-10-25 00:00:00 11.9 4 Norte 8 Nordeste 0 -- -- 80
2020-10-24 23:00:00 12.7 3 Noroeste 9 Sudoeste 0 -- -- 76
2020-10-24 22:00:00 13.1 2 Sur 7 Sudoeste 0 -- -- 78
2020-10-24 21:00:00 14.2 3 Sudoeste 13 Sudoeste 0 -- -- 76
2020-10-24 20:00:00 15.4 5 Sudoeste 9 Sudoeste 0 -- -- 70
2020-10-24 19:00:00 17.5 6 Oeste 14 Sudoeste 0 -- -- 62
2020-10-24 18:00:00 19.3 5 Oeste 15 Oeste 0 -- -- 54
2020-10-24 17:00:00 19.1 8 Sudoeste 22 Sur 0 -- -- 52
2020-10-24 16:00:00 18.5 5 Oeste 21 Sudoeste 0 -- -- 59
2020-10-24 15:00:00 18.6 8 Oeste 18 Sudoeste 0 -- -- 64
2020-10-24 14:00:00 17.9 7 Oeste 18 Sudoeste 0 -- -- 69
2020-10-24 13:00:00 17.7 10 Sur 19 Sudoeste 0 -- -- 71
2020-10-24 12:00:00 16.2 9 Sur 18 Sur 0 -- -- 80
2020-10-24 11:00:00 15 7 Sur 11 Sur 0 -- -- 82
2020-10-24 10:00:00 12.4 2 Sur 6 Este 0 -- -- 92
2020-10-24 09:00:00 11.1 3 Sudeste 5 Este 0 -- -- 88
2020-10-24 08:00:00 11.5 2 Sudeste 4 Este 0 -- -- 89
2020-10-24 07:00:00 12.3 3 Nordeste 7 Nordeste 0 -- -- 86
2020-10-24 06:00:00 12.6 4 Nordeste 7 Nordeste 0 -- -- 89
2020-10-24 05:00:00 12.6 5 Norte 8 Norte 0 -- -- 94
2020-10-24 04:00:00 12.3 4 Norte 6 Norte 0 -- -- 95
2020-10-24 03:00:00 12.4 4 Norte 6 Norte 0 -- -- 95
2020-10-24 02:00:00 12.7 3 Nordeste 6 Nordeste 0 -- -- 94
2020-10-24 01:00:00 12.9 4 Nordeste 5 Nordeste 0 -- -- 94
2020-10-24 00:00:00 13.2 3 Nordeste 4 Nordeste 0 -- -- 95
2020-10-23 23:00:00 13 0 Calma 4 Sudoeste 0 -- -- 94
2020-10-23 22:00:00 13.2 2 Sur 12 Sur 0 -- -- 92
2020-10-23 21:00:00 14.1 6 Sur 11 Sur 0 -- -- 91
2020-10-23 20:00:00 14.6 5 Sur 11 Sur 0 -- -- 84
2020-10-23 19:00:00 17.1 3 Oeste 11 Norte 0 -- -- 70
2020-10-23 18:00:00 17.4 6 Norte 19 Norte 0 -- -- 70
2020-10-23 17:00:00 15.3 17 Norte 30 Norte 0 -- -- 81
2020-10-23 16:00:00 18.2 5 Oeste 16 Sudoeste 0 -- -- 64
2020-10-23 15:00:00 16.9 5 Oeste 14 Sudoeste 0 -- -- 70
2020-10-23 14:00:00 16.4 5 Sudoeste 13 Oeste 0 -- -- 71
2020-10-23 13:00:00 15.7 5 Oeste 17 Sur 0 -- -- 74
2020-10-23 12:00:00 15.5 3 Sur 12 Sudoeste 0 -- -- 77
2020-10-23 11:00:00 14.2 6 Sur 9 Sur 0 -- -- 86
2020-10-23 10:00:00 11.6 0 Calma 5 Sudeste 0 -- -- 96
2020-10-23 09:00:00 10.3 0 Calma 4 Sudeste 0 -- -- 93
2020-10-23 08:00:00 10.4 0 Calma 3 Norte 0 -- -- 93
2020-10-23 07:00:00 10.8 2 Nordeste 4 Norte 0 -- -- 94
2020-10-23 06:00:00 11 3 Norte 5 Norte 0 -- -- 94
2020-10-23 05:00:00 11 2 Norte 4 Noroeste 0 -- -- 93
2020-10-23 04:00:00 11.1 3 Norte 5 Norte 0 -- -- 94
2020-10-23 03:00:00 11.6 0 Calma 5 Noroeste 0 -- -- 94
2020-10-23 02:00:00 11.9 0 Calma 5 Noroeste 0 -- -- 93
2020-10-23 01:00:00 12.4 2 Noroeste 6 Oeste 0 -- -- 93
2020-10-23 00:00:00 12.8 2 Noroeste 12 Oeste 0 -- -- 91
2020-10-22 23:00:00 13.2 8 Sudoeste 27 Sudoeste 0 -- -- 90
2020-10-22 22:00:00 13.7 14 Sudoeste 24 Sudoeste 0 -- -- 86
2020-10-22 21:00:00 14 15 Sur 24 Sur 0 -- -- 82
2020-10-22 20:00:00 14.9 13 Sur 29 Sur 0 -- -- 80
2020-10-22 19:00:00 17 22 Sur 33 Sur 0 -- -- 72
2020-10-22 18:00:00 17.9 19 Sur 39 Sudoeste 0 -- -- 67
2020-10-22 17:00:00 19.3 18 Sudoeste 34 Sur 0 -- -- 63
2020-10-22 16:00:00 19.3 17 Sudoeste 35 Sudoeste 0.2 -- -- 65
2020-10-22 15:00:00 19.1 21 Sur 29 Sur 0 -- -- 69
2020-10-22 14:00:00 18.5 13 Sur 26 Sur 0 -- -- 74
2020-10-22 13:00:00 17.6 12 Sur 20 Sur 0 -- -- 79
2020-10-22 12:00:00 15.8 6 Sur 15 Sudeste 0 -- -- 92
2020-10-22 11:00:00 15.2 6 Sur 14 Sur 0 -- -- 97
2020-10-22 10:00:00 14.5 3 Sur 5 Sur 0 -- -- 98
2020-10-22 09:00:00 14.2 0 Calma 6 Sudoeste 0 -- -- 98
2020-10-22 08:00:00 14.2 2 Sudoeste 14 Sur 0 -- -- 98
2020-10-22 07:00:00 14.1 7 Sur 13 Sur 0 -- -- 97
2020-10-22 06:00:00 14.1 5 Sur 10 Sur 0 -- -- 97
2020-10-22 05:00:00 13.9 7 Sur 17 Sur 0 -- -- 97
2020-10-22 04:00:00 14.2 10 Sur 18 Sudeste 0.2 -- -- 97
2020-10-22 03:00:00 14.3 13 Sur 20 Sur 0.6 -- -- 97
2020-10-22 02:00:00 14.1 8 Sur 18 Sudeste 0 -- -- 97
2020-10-22 01:00:00 14.2 10 Sur 17 Sur 0 -- -- 96
2020-10-22 00:00:00 14.3 4 Sudeste 12 Sur 0 -- -- 96
2020-10-21 23:00:00 14.2 8 Sur 14 Sur 1.8 -- -- 96
2020-10-21 22:00:00 14 8 Sur 19 Sudoeste 11.4 -- -- 95
2020-10-21 21:00:00 14.5 7 Sur 21 Sur 2.4 -- -- 94
2020-10-21 20:00:00 15.2 8 Sur 25 Sudoeste 2.8 -- -- 93
2020-10-21 19:00:00 16.6 16 Sur 31 Sur 0.2 -- -- 84
2020-10-21 18:00:00 18.5 20 Sur 39 Sur 0 -- -- 70
2020-10-21 17:00:00 18.9 23 Sur 37 Sur 0 -- -- 68
2020-10-21 16:00:00 19.8 20 Sur 34 Sur 0 -- -- 67
2020-10-21 15:00:00 19.4 21 Sur 39 Sur 0 -- -- 67
2020-10-21 14:00:00 18.9 26 Sur 37 Sur 0 -- -- 71
2020-10-21 13:00:00 17 9 Sur 24 Sudoeste 0 -- -- 86
2020-10-21 12:00:00 16 18 Sur 31 Sur 0 -- -- 88
2020-10-21 11:00:00 15.2 16 Sur 24 Sur 0 -- -- 97
2020-10-21 10:00:00 14.3 8 Sur 17 Sur 0 -- -- 97
2020-10-21 09:00:00 14.2 13 Sudoeste 24 Sudoeste 0 -- -- 97
2020-10-21 08:00:00 14.6 12 Sudoeste 23 Sur 0 -- -- 97
2020-10-21 07:00:00 14.5 12 Sur 20 Sudoeste 0 -- -- 97
2020-10-21 06:00:00 14.4 8 Sudoeste 17 Sur 0.2 -- -- 96
2020-10-21 05:00:00 14.2 9 Sur 28 Sur 0 -- -- 96
2020-10-21 04:00:00 14.8 15 Sur 25 Sur 0.2 -- -- 96
2020-10-21 03:00:00 14.6 15 Sur 33 Sudoeste 0 -- -- 95
2020-10-21 02:00:00 15.1 23 Sudoeste 45 Sur 0 -- -- 96
2020-10-21 01:00:00 15 22 Sur 38 Sudoeste 0 -- -- 97
2020-10-21 00:00:00 14.3 25 Sur 42 Sudoeste 0 -- -- 96
2020-10-20 23:00:00 14.6 25 Sur 39 Sur 0.2 -- -- 96
2020-10-20 22:00:00 14.3 12 Sudoeste 66 Sur 3.2 -- -- 96
2020-10-20 21:00:00 16.5 30 Sur 64 Sur 7.2 -- -- 97
2020-10-20 20:00:00 16.2 26 Sur 68 Sudoeste 7.2 -- -- 96
2020-10-20 19:00:00 16.5 51 Sur 87 Sur 7.8 -- -- 96
2020-10-20 18:00:00 15.3 32 Sur 55 Sudeste 5.6 -- -- 94
2020-10-20 17:00:00 15.7 29 Sur 56 Sur 6 -- -- 92
2020-10-20 16:00:00 16.7 24 Sur 42 Sur 3.6 -- -- 90
2020-10-20 15:00:00 16.8 25 Sur 43 Sur 2.4 -- -- 91
2020-10-20 14:00:00 17 23 Sur 45 Sur 2 -- -- 88
2020-10-20 13:00:00 18.6 26 Sur 44 Sur 0 -- -- 75
2020-10-20 12:00:00 18.4 24 Sur 42 Sudeste 0 -- -- 75
2020-10-20 11:00:00 17 21 Sur 45 Sur 0.2 -- -- 84
2020-10-20 10:00:00 16.8 22 Sur 45 Sur 0 -- -- 85
2020-10-20 09:00:00 16 24 Sur 43 Sudeste 0 -- -- 87
2020-10-20 08:00:00 15.3 21 Sur 38 Sur 1 -- -- 93
2020-10-20 07:00:00 15 14 Sur 30 Sur 0.6 -- -- 95
2020-10-20 06:00:00 14.7 14 Sur 27 Sudeste 0.6 -- -- 95
2020-10-20 05:00:00 14.8 11 Sur 27 Sur 0.6 -- -- 94
2020-10-20 04:00:00 15 18 Sur 37 Sur 3.6 -- -- 90
2020-10-20 03:00:00 17 22 Sur 41 Sur 0 -- -- 71
2020-10-20 02:00:00 17 20 Sur 34 Sur 0 -- -- 72
2020-10-20 01:00:00 17.1 17 Sur 35 Sur 0 -- -- 73
2020-10-20 00:00:00 17.3 15 Sur 30 Sur 0 -- -- 73
2020-10-19 23:00:00 17.3 17 Sur 31 Sur 0 -- -- 71
2020-10-19 22:00:00 17.3 15 Sur 30 Sur 0 -- -- 69
2020-10-19 21:00:00 17.8 14 Sur 28 Sur 0 -- -- 65
2020-10-19 20:00:00 18.5 13 Sur 37 Sur 0 -- -- 57
2020-10-19 19:00:00 19.4 21 Sur 46 Sur 0 -- -- 51
2020-10-19 18:00:00 20.6 28 Sur 69 Sudoeste 0 -- -- 45
2020-10-19 17:00:00 23.6 29 Sur 53 Sur 0 -- -- 33
2020-10-19 16:00:00 24 35 Sur 54 Sur 0 -- -- 28
2020-10-19 15:00:00 25.7 24 Sur 44 Sur 0 -- -- 26
2020-10-19 14:00:00 24.5 21 Sur 41 Sur 0 -- -- 22
2020-10-19 13:00:00 23.5 20 Sur 40 Sur 0 -- -- 18
2020-10-19 12:00:00 21.8 14 Sudeste 33 Sur 0 -- -- 18
2020-10-19 11:00:00 19.4 12 Sudeste 26 Sudeste 0 -- -- 21
2020-10-19 10:00:00 16.5 9 Sudeste 21 Este 0 -- -- 25
2020-10-19 09:00:00 15.1 11 Este 23 Este 0 -- -- 28
2020-10-19 08:00:00 14.3 8 Este 21 Sudeste 0 -- -- 30
2020-10-19 07:00:00 14.4 10 Este 22 Sudeste 0 -- -- 31
2020-10-19 06:00:00 14.2 5 Este 19 Este 0 -- -- 32
2020-10-19 05:00:00 14.6 7 Este 17 Sudeste 0 -- -- 33
2020-10-19 04:00:00 15.4 9 Este 22 Este 0 -- -- 34
2020-10-19 03:00:00 16.1 10 Este 21 Sudeste 0 -- -- 35
2020-10-19 02:00:00 16.3 6 Sudeste 15 Este 0 -- -- 34
2020-10-19 01:00:00 16.4 5 Sudeste 11 Sudeste 0 -- -- 38
2020-10-19 00:00:00 15.3 5 Sudeste 9 Sudeste 0 -- -- 43
2020-10-18 23:00:00 14.6 5 Sur 8 Sur 0 -- -- 47
2020-10-18 22:00:00 16.2 3 Sur 8 Sudoeste 0 -- -- 39
2020-10-18 21:00:00 17.5 3 Sudeste 9 Sur 0 -- -- 36
2020-10-18 20:00:00 20.4 4 Sudeste 21 Sudeste 0 -- -- 30
2020-10-18 19:00:00 23 10 Sur 25 Sudeste 0 -- -- 25
2020-10-18 18:00:00 23.9 10 Sur 24 Sur 0 -- -- 25
2020-10-18 17:00:00 24.5 13 Sur 24 Sur 0 -- -- 24
2020-10-18 16:00:00 24.7 9 Sur 22 Sur 0 -- -- 23
2020-10-18 15:00:00 23.6 8 Sur 20 Sudeste 0 -- -- 24
2020-10-18 14:00:00 22.6 8 Sur 21 Sur 0 -- -- 26
2020-10-18 13:00:00 21.4 6 Sudeste 27 Este 0 -- -- 27
2020-10-18 12:00:00 19.6 10 Este 18 Este 0 -- -- 31
2020-10-18 11:00:00 16.8 8 Este 16 Este 0 -- -- 38
2020-10-18 10:00:00 14 0 Calma 13 Este 0 -- -- 45
2020-10-18 09:00:00 12.3 9 Este 20 Este 0 -- -- 47
2020-10-18 08:00:00 13.9 8 Este 14 Este 0 -- -- 41
2020-10-18 07:00:00 14.5 9 Este 13 Este 0 -- -- 40
2020-10-18 06:00:00 14.7 9 Este 13 Este 0 -- -- 41
2020-10-18 05:00:00 14.8 10 Este 13 Este 0 -- -- 41
2020-10-18 04:00:00 13.4 6 Este 10 Este 0 -- -- 47
2020-10-18 03:00:00 13.8 2 Norte 6 Nordeste 0 -- -- 52
2020-10-18 02:00:00 13.1 3 Norte 7 Nordeste 0 -- -- 54
2020-10-18 01:00:00 12.4 4 Norte 9 Norte 0 -- -- 57
2020-10-18 00:00:00 12.5 3 Norte 7 Norte 0 -- -- 56
2020-10-17 23:00:00 12.9 5 Norte 7 Norte 0 -- -- 53
2020-10-17 22:00:00 14.1 3 Norte 11 Sudoeste 0 -- -- 47
2020-10-17 21:00:00 15.1 3 Sudoeste 14 Sudoeste 0 -- -- 41
2020-10-17 20:00:00 17.3 10 Sur 22 Sur 0 -- -- 35
2020-10-17 19:00:00 20.9 9 Sudoeste 16 Sudoeste 0 -- -- 25
2020-10-17 18:00:00 21.8 3 Oeste 22 Sur 0 -- -- 22
2020-10-17 17:00:00 21.8 5 Sur 19 Sudoeste 0 -- -- 23
2020-10-17 16:00:00 21.7 9 Sur 23 Sur 0 -- -- 21
2020-10-17 15:00:00 21.2 9 Sur 24 Sur 0 -- -- 23
2020-10-17 14:00:00 20.3 8 Sur 19 Sur 0 -- -- 26
2020-10-17 13:00:00 19.4 9 Sur 18 Sur 0 -- -- 28
2020-10-17 12:00:00 17.6 6 Sur 15 Sur 0 -- -- 34
2020-10-17 11:00:00 16.1 8 Sur 13 Sudeste 0 -- -- 37
2020-10-17 10:00:00 14 4 Sudeste 13 Este 0 -- -- 43
2020-10-17 09:00:00 11.3 6 Este 16 Este 0 -- -- 49
2020-10-17 08:00:00 11 4 Sudeste 11 Sudeste 0 -- -- 50
2020-10-17 07:00:00 11.1 3 Este 6 Este 0 -- -- 50
2020-10-17 06:00:00 12 0 Calma 6 Nordeste 0 -- -- 47
2020-10-17 05:00:00 13.6 4 Nordeste 5 Nordeste 0 -- -- 43
2020-10-17 04:00:00 12.9 4 Nordeste 5 Nordeste 0 -- -- 45
2020-10-17 03:00:00 12.8 3 Nordeste 9 Norte 0 -- -- 46
2020-10-17 02:00:00 12.6 6 Norte 8 Norte 0 -- -- 47
2020-10-17 01:00:00 12.9 3 Norte 8 Oeste 0 -- -- 44
2020-10-17 00:00:00 13.4 2 Noroeste 5 Noroeste 0 -- -- 40
2020-10-16 23:00:00 14.2 3 Norte 9 Oeste 0 -- -- 43
2020-10-16 22:00:00 14.7 4 Oeste 13 Oeste 0 -- -- 41
2020-10-16 21:00:00 15.7 8 Sudoeste 18 Sudoeste 0 -- -- 38
2020-10-16 20:00:00 17.8 9 Sudoeste 20 Sudoeste 0 -- -- 29
2020-10-16 19:00:00 21.7 8 Sudoeste 18 Sudoeste 0 -- -- 19
2020-10-16 18:00:00 22.6 9 Sudoeste 17 Sudoeste 0 -- -- 16
2020-10-16 17:00:00 22.6 8 Sur 15 Oeste 0 -- -- 16
2020-10-16 16:00:00 22.1 9 Sudoeste 18 Sudoeste 0 -- -- 17
2020-10-16 15:00:00 21.3 6 Norte 18 Norte 0 -- -- 17
2020-10-16 14:00:00 21 4 Noroeste 14 Sudeste 0 -- -- 19
2020-10-16 13:00:00 20 6 Sur 14 Sur 0 -- -- 23
2020-10-16 12:00:00 18 8 Sudeste 19 Este 0 -- -- 25
2020-10-16 11:00:00 16.2 9 Este 19 Este 0 -- -- 28
2020-10-16 10:00:00 14.4 4 Este 14 Este 0 -- -- 32
2020-10-16 09:00:00 13 9 Este 14 Este 0 -- -- 34
2020-10-16 08:00:00 13.7 9 Este 13 Este 0 -- -- 33
2020-10-16 07:00:00 13.2 9 Nordeste 14 Nordeste 0 -- -- 33
2020-10-16 06:00:00 12.9 6 Nordeste 10 Nordeste 0 -- -- 33
2020-10-16 05:00:00 12.7 7 Nordeste 12 Norte 0 -- -- 33
2020-10-16 04:00:00 12.8 9 Nordeste 13 Norte 0 -- -- 31
2020-10-16 03:00:00 11.3 6 Norte 8 Nordeste 0 -- -- 36
2020-10-16 02:00:00 11.8 5 Norte 9 Norte 0 -- -- 37
2020-10-16 01:00:00 12.4 5 Norte 7 Norte 0 -- -- 34
2020-10-16 00:00:00 12.6 0 Calma 4 Norte 0 -- -- 32
2020-10-15 23:00:00 14 4 Nordeste 10 Nordeste 0 -- -- 30
2020-10-15 22:00:00 15 9 Nordeste 17 Norte 0 -- -- 29
2020-10-15 21:00:00 15.2 14 Norte 21 Norte 0 -- -- 29
2020-10-15 20:00:00 17.4 13 Norte 26 Norte 0 -- -- 26
2020-10-15 19:00:00 20.2 19 Norte 27 Norte 0 -- -- 20
2020-10-15 18:00:00 21.5 10 Norte 19 Norte 0 -- -- 19
2020-10-15 17:00:00 21.7 9 Noroeste 20 Sudoeste 0 -- -- 22
2020-10-15 16:00:00 21.2 6 Oeste 19 Nordeste 0 -- -- 21
2020-10-15 15:00:00 20.7 5 Noroeste 18 Noroeste 0 -- -- 22
2020-10-15 14:00:00 19.6 6 Norte 22 Noroeste 0 -- -- 25
2020-10-15 13:00:00 18.2 6 Nordeste 23 Norte 0 -- -- 29
2020-10-15 12:00:00 17.2 10 Norte 18 Noroeste 0 -- -- 30
2020-10-15 11:00:00 16 10 Norte 18 Norte 0 -- -- 35
2020-10-15 10:00:00 12.8 9 Norte 13 Norte 0 -- -- 47
2020-10-15 09:00:00 10.4 8 Nordeste 13 Norte 0 -- -- 53
2020-10-15 08:00:00 10.8 10 Norte 15 Norte 0 -- -- 50
2020-10-15 07:00:00 10.9 12 Norte 19 Norte 0 -- -- 50
2020-10-15 06:00:00 11.2 15 Norte 18 Norte 0 -- -- 49
2020-10-15 05:00:00 11 13 Norte 18 Norte 0 -- -- 50
2020-10-15 04:00:00 11.3 12 Norte 17 Norte 0 -- -- 50
2020-10-15 03:00:00 9.8 10 Norte 14 Norte 0 -- -- 56
2020-10-15 02:00:00 10.4 11 Norte 14 Noroeste 0 -- -- 54
2020-10-15 01:00:00 11.1 12 Norte 18 Norte 0 -- -- 50
2020-10-15 00:00:00 12.6 13 Norte 22 Norte 0 -- -- 42
2020-10-14 23:00:00 13.8 14 Norte 22 Noroeste 0 -- -- 36
2020-10-14 22:00:00 14.2 10 Norte 17 Norte 0 -- -- 33
2020-10-14 21:00:00 15.5 12 Norte 23 Norte 0 -- -- 29
2020-10-14 20:00:00 17.5 13 Noroeste 30 Norte 0 -- -- 26
2020-10-14 19:00:00 19.1 20 Noroeste 32 Norte 0 -- -- 22
2020-10-14 18:00:00 19.9 15 Noroeste 49 Norte 0 -- -- 23
2020-10-14 17:00:00 20.3 23 Norte 37 Norte 0 -- -- 22
2020-10-14 16:00:00 20 17 Noroeste 35 Noroeste 0 -- -- 24
2020-10-14 15:00:00 19.6 23 Norte 40 Noroeste 0 -- -- 27
2020-10-14 14:00:00 18.8 19 Norte 32 Noroeste 0 -- -- 34
2020-10-14 13:00:00 17.4 14 Noroeste 24 Noroeste 0 -- -- 37
2020-10-14 12:00:00 15.1 8 Noroeste 19 Noroeste 0 -- -- 47
2020-10-14 11:00:00 13.6 4 Noroeste 12 Noroeste 0 -- -- 56
2020-10-14 10:00:00 11.4 5 Noroeste 18 Noroeste 0 -- -- 73
2020-10-14 09:00:00 9.4 12 Noroeste 26 Norte 0 -- -- 84
2020-10-14 08:00:00 9.5 24 Norte 40 Norte 0 -- -- 81
2020-10-14 07:00:00 10 22 Noroeste 39 Noroeste 0 -- -- 76
2020-10-14 06:00:00 10.5 27 Noroeste 37 Norte 0 -- -- 71
2020-10-14 05:00:00 10.9 9 Noroeste 30 Noroeste 0 -- -- 70
2020-10-14 04:00:00 12.9 23 Noroeste 35 Norte 0 -- -- 64
2020-10-14 03:00:00 13.7 18 Noroeste 30 Noroeste 0 -- -- 69
2020-10-14 02:00:00 15.2 10 Noroeste 19 Noroeste 0 -- -- 69
2020-10-14 01:00:00 16.9 10 Noroeste 23 Noroeste 0 -- -- 58
2020-10-14 00:00:00 18.2 10 Noroeste 21 Noroeste 0 -- -- 50
2020-10-13 23:00:00 19.4 13 Noroeste 22 Noroeste 0 -- -- 38
2020-10-13 22:00:00 20 6 Noroeste 13 Noroeste 0 -- -- 30
2020-10-13 21:00:00 20.8 4 Norte 24 Noroeste 0 -- -- 28
2020-10-13 20:00:00 22.9 15 Noroeste 26 Noroeste 0 -- -- 23
2020-10-13 19:00:00 25.8 11 Oeste 23 Sudoeste 0 -- -- 14
2020-10-13 18:00:00 26.2 8 Oeste 20 Oeste 0 -- -- 15
2020-10-13 17:00:00 26.4 8 Oeste 20 Noroeste 0 -- -- 15
2020-10-13 16:00:00 25.8 4 Noroeste 31 Oeste 0 -- -- 13
2020-10-13 15:00:00 25 6 Oeste 17 Oeste 0 -- -- 13
2020-10-13 14:00:00 23.9 5 Nordeste 15 Oeste 0 -- -- 13
2020-10-13 13:00:00 22.5 6 Norte 17 Noroeste 0 -- -- 14
2020-10-13 12:00:00 21.3 5 Norte 12 Norte 0 -- -- 17
2020-10-13 11:00:00 20.2 4 Este 8 Este 0 -- -- 21
2020-10-13 10:00:00 -- -- -- -- -- -- -- -- --
2020-10-13 09:00:00 14.2 6 Nordeste 8 Este 0 -- -- 29
2020-10-13 08:00:00 15.7 5 Nordeste 7 Nordeste 0 -- -- 26
2020-10-13 07:00:00 15.4 6 Nordeste 7 Nordeste 0 -- -- 27
2020-10-13 06:00:00 15.1 5 Nordeste 12 Nordeste 0 -- -- 28
2020-10-13 05:00:00 15 9 Nordeste 12 Nordeste 0 -- -- 28
2020-10-13 04:00:00 15 8 Nordeste 10 Nordeste 0 -- -- 28
2020-10-13 03:00:00 15.2 8 Nordeste 17 Norte 0 -- -- 29
2020-10-13 02:00:00 15.8 12 Norte 15 Norte 0 -- -- 27
2020-10-13 01:00:00 -- -- -- -- -- -- -- -- --
2020-10-13 00:00:00 15.7 9 Nordeste 15 Nordeste 0 -- -- 26
2020-10-12 23:00:00 16.8 8 Nordeste 18 Norte 0 -- -- 23
2020-10-12 22:00:00 18.1 11 Norte 17 Norte 0 -- -- 18
2020-10-12 21:00:00 19.1 15 Norte 20 Norte 0 -- -- 17
2020-10-12 20:00:00 20.8 13 Norte 24 Norte 0 -- -- 13
2020-10-12 19:00:00 23.7 14 Norte 21 Norte 0 -- -- 12
2020-10-12 18:00:00 24.7 14 Norte 22 Norte 0 -- -- 9
2020-10-12 17:00:00 25.2 14 Norte 24 Norte 0 -- -- 10
2020-10-12 16:00:00 24.5 15 Norte 29 Norte 0 -- -- 8
2020-10-12 15:00:00 23.5 12 Norte 22 Noroeste 0 -- -- 11
2020-10-12 14:00:00 22.3 8 Este 22 Norte 0 -- -- 13
2020-10-12 13:00:00 20.5 9 Nordeste 23 Nordeste 0 -- -- 16
2020-10-12 12:00:00 18.5 13 Nordeste 31 Nordeste 0 -- -- 20
2020-10-12 11:00:00 16.8 14 Nordeste 27 Nordeste 0 -- -- 26
2020-10-12 10:00:00 15.3 10 Nordeste 22 Nordeste 0 -- -- 30
2020-10-12 09:00:00 13.8 11 Nordeste 28 Este 0 -- -- 30
2020-10-12 08:00:00 14.6 13 Este 28 Este 0 -- -- 28
2020-10-12 07:00:00 14.9 9 Este 23 Este 0 -- -- 28
2020-10-12 06:00:00 15.1 6 Sudeste 22 Sudeste 0 -- -- 26
2020-10-12 05:00:00 16.5 8 Este 30 Nordeste 0 -- -- 22
2020-10-12 04:00:00 -- -- -- -- -- -- -- -- --
2020-10-12 03:00:00 17.9 7 Este 23 Este 0 -- -- 21
2020-10-12 02:00:00 19 9 Este 21 Nordeste 0 -- -- 22
2020-10-12 01:00:00 19.5 11 Nordeste 19 Nordeste 0 -- -- 22
2020-10-12 00:00:00 19.8 9 Nordeste 24 Nordeste 0 -- -- 25
2020-10-11 23:00:00 19.7 9 Nordeste 17 Nordeste 0 -- -- 29
2020-10-11 22:00:00 20.7 8 Nordeste 15 Nordeste 0 -- -- 30
2020-10-11 21:00:00 -- -- -- -- -- -- -- -- --
2020-10-11 20:00:00 -- -- -- -- -- -- -- -- --
2020-10-11 19:00:00 26.3 12 Sur 21 Sur 0 -- -- 32
2020-10-11 18:00:00 28.6 8 Nordeste 21 Noroeste 0 -- -- 20
2020-10-11 17:00:00 28.9 7 Este 14 Sudoeste 0 -- -- 17
2020-10-11 16:00:00 28 8 Oeste 13 Oeste 0 -- -- 21
2020-10-11 15:00:00 26.8 3 Norte 17 Norte 0 -- -- 23
2020-10-11 14:00:00 26.3 9 Nordeste 23 Norte 0 -- -- 23
2020-10-11 13:00:00 24.9 6 Este 18 Sudeste 0 -- -- 29
2020-10-11 12:00:00 23.5 8 Este 18 Este 0 -- -- 31
2020-10-11 11:00:00 21.5 5 Este 9 Sur 0 -- -- 38
2020-10-11 10:00:00 19 5 Sur 8 Sur 0 -- -- 41
2020-10-11 09:00:00 15.9 2 Sur 8 Sudeste 0 -- -- 47
2020-10-11 08:00:00 17.8 3 Sudeste 9 Sudeste 0 -- -- 41
2020-10-11 07:00:00 18.8 4 Nordeste 9 Nordeste 0 -- -- 40
2020-10-11 06:00:00 18.7 7 Nordeste 14 Norte 0 -- -- 41
2020-10-11 05:00:00 19.5 10 Norte 17 Nordeste 0 -- -- 38
2020-10-11 04:00:00 19 9 Norte 12 Norte 0 -- -- 40
2020-10-11 03:00:00 19.1 5 Norte 8 Nordeste 0 -- -- 41
2020-10-11 02:00:00 19 7 Nordeste 10 Nordeste 0 -- -- 49
2020-10-11 01:00:00 18.7 6 Norte 9 Norte 0 -- -- 61
2020-10-11 00:00:00 18.5 5 Norte 8 Noroeste 0 -- -- 63
2020-10-10 23:00:00 18.9 3 Noroeste 5 Oeste 0 -- -- 60
2020-10-10 22:00:00 20.2 0 Calma 11 Sudoeste 0 -- -- 54
2020-10-10 21:00:00 22 3 Oeste 13 Oeste 0 -- -- 49
2020-10-10 20:00:00 23.7 7 Sudoeste 27 Sudoeste 0 -- -- 43
2020-10-10 19:00:00 26.5 13 Sudoeste 24 Sudoeste 0 -- -- 35
2020-10-10 18:00:00 28.4 9 Oeste 20 Oeste 0 -- -- 27
2020-10-10 17:00:00 28.9 10 Oeste 18 Oeste 0 -- -- 27
2020-10-10 16:00:00 28.8 9 Oeste 19 Sudoeste 0 -- -- 28
2020-10-10 15:00:00 28.8 8 Sudoeste 19 Sudoeste 0 -- -- 28
2020-10-10 14:00:00 27.7 5 Sudoeste 19 Sur 0 -- -- 24
2020-10-10 13:00:00 26.4 6 Sudeste 19 Sur 0 -- -- 27
2020-10-10 12:00:00 24.4 6 Sudeste 16 Sur 0 -- -- 30
2020-10-10 11:00:00 22.1 9 Sur 13 Sur 0 -- -- 35
2020-10-10 10:00:00 19.9 0 Calma 5 Sur 0 -- -- 44
2020-10-10 09:00:00 17.5 3 Sur 5 Norte 0 -- -- 45
2020-10-10 08:00:00 17.5 2 Sudeste 8 Sudeste 0 -- -- 45
2020-10-10 07:00:00 18.8 4 Sur 10 Sudeste 0 -- -- 41
2020-10-10 06:00:00 20.9 8 Nordeste 12 Este 0 -- -- 37
2020-10-10 05:00:00 21.4 7 Este 13 Este 0 -- -- 35
2020-10-10 04:00:00 22 7 Este 15 Este 0 -- -- 34
2020-10-10 03:00:00 21.6 9 Nordeste 13 Nordeste 0 -- -- 35
2020-10-10 02:00:00 21.1 7 Nordeste 21 Norte 0 -- -- 37
2020-10-10 01:00:00 21.7 17 Norte 21 Norte 0 -- -- 35
2020-10-10 00:00:00 19.8 0 Calma 3 Sur 0 -- -- 43
2020-10-09 23:00:00 20.1 2 Sudoeste 4 Oeste 0 -- -- 42
2020-10-09 22:00:00 21.4 4 Oeste 8 Sudoeste 0 -- -- 39
2020-10-09 21:00:00 23.1 4 Sudoeste 10 Sudoeste 0 -- -- 34
2020-10-09 20:00:00 25.3 6 Sudoeste 19 Sur 0 -- -- 31
2020-10-09 19:00:00 28.7 14 Sur 22 Sur 0 -- -- 23
2020-10-09 18:00:00 30.4 3 Oeste 18 Sudoeste 0 -- -- 19
2020-10-09 17:00:00 30.4 7 Sudoeste 17 Oeste 0 -- -- 19
2020-10-09 16:00:00 29.9 8 Norte 19 Oeste 0 -- -- 21
2020-10-09 15:00:00 29 9 Sudoeste 15 Sudoeste 0 -- -- 21
2020-10-09 14:00:00 27.6 4 Nordeste 14 Este 0 -- -- 22
2020-10-09 13:00:00 25.9 3 Noroeste 11 Sur 0 -- -- 26
2020-10-09 12:00:00 23.8 7 Sur 16 Sudeste 0 -- -- 31
2020-10-09 11:00:00 22.7 5 Sudeste 12 Este 0 -- -- 36
2020-10-09 10:00:00 20.3 8 Este 14 Este 0 -- -- 40
2020-10-09 09:00:00 19.1 8 Este 14 Nordeste 0 -- -- 40
2020-10-09 08:00:00 18.6 8 Este 17 Este 0 -- -- 42
2020-10-09 07:00:00 18 2 Sur 14 Sudeste 0 -- -- 45
2020-10-09 06:00:00 19.4 6 Este 14 Este 0 -- -- 40
2020-10-09 05:00:00 18.7 2 Nordeste 7 Norte 0 -- -- 42
2020-10-09 04:00:00 18.3 4 Norte 6 Norte 0 -- -- 45
2020-10-09 03:00:00 18.9 4 Noroeste 6 Norte 0 -- -- 43
2020-10-09 02:00:00 19.8 4 Norte 7 Norte 0 -- -- 41
2020-10-09 01:00:00 20.6 3 Noroeste 6 Norte 0 -- -- 39
2020-10-09 00:00:00 21 2 Norte 8 Noroeste 0 -- -- 38
2020-10-08 23:00:00 21.7 2 Noroeste 9 Oeste 0 -- -- 37
2020-10-08 22:00:00 22.7 5 Oeste 11 Oeste 0 -- -- 34
2020-10-08 21:00:00 23.5 6 Sudoeste 14 Sudoeste 0 -- -- 32
2020-10-08 20:00:00 25.7 9 Sudoeste 24 Sudoeste 0 -- -- 27
2020-10-08 19:00:00 28.5 13 Sudoeste 20 Sudoeste 0 -- -- 22
2020-10-08 18:00:00 30 5 Oeste 18 Sudoeste 0 -- -- 19
2020-10-08 17:00:00 30.5 8 Sudoeste 19 Sur 0 -- -- 18
2020-10-08 16:00:00 30.3 12 Sudoeste 26 Sudoeste 0 -- -- 20
2020-10-08 15:00:00 30 9 Sur 23 Sudoeste 0 -- -- 18
2020-10-08 14:00:00 29.2 13 Sur 23 Sur 0 -- -- 20
2020-10-08 13:00:00 27.4 5 Sur 18 Sur 0 -- -- 23
2020-10-08 12:00:00 26.3 6 Este 20 Sudeste 0 -- -- 26
2020-10-08 11:00:00 23.7 10 Este 18 Sudeste 0 -- -- 33
2020-10-08 10:00:00 21.3 6 Este 14 Sudeste 0 -- -- 37
2020-10-08 09:00:00 20.2 8 Este 14 Este 0 -- -- 36
2020-10-08 08:00:00 19.4 6 Nordeste 12 Este 0 -- -- 34
2020-10-08 07:00:00 20.5 10 Este 13 Este 0 -- -- 32
2020-10-08 06:00:00 20.9 9 Este 16 Este 0 -- -- 32
2020-10-08 05:00:00 22.1 11 Este 15 Este 0 -- -- 30
2020-10-08 04:00:00 22.9 9 Este 17 Este 0 -- -- 29
2020-10-08 03:00:00 23.3 13 Este 18 Este 0 -- -- 30
2020-10-08 02:00:00 22.9 10 Nordeste 11 Este 0 -- -- 33
2020-10-08 01:00:00 22.3 7 Nordeste 10 Este 0 -- -- 35
2020-10-08 00:00:00 22.1 3 Norte 6 Nordeste 0 -- -- 35
2020-10-07 23:00:00 21.8 0 Calma 7 Sur 0 -- -- 41
2020-10-07 22:00:00 22.9 5 Sur 13 Sudoeste 0 -- -- 38
2020-10-07 21:00:00 23.6 6 Sur 10 Sur 0 -- -- 32
2020-10-07 20:00:00 27 6 Sur 19 Sur 0 -- -- 25
2020-10-07 19:00:00 30.5 4 Sudoeste 14 Norte 0 -- -- 20
2020-10-07 18:00:00 30.9 4 Noroeste 15 Sudeste 0 -- -- 18
2020-10-07 17:00:00 30.6 6 Nordeste 13 Noroeste 0 -- -- 19
2020-10-07 16:00:00 30.2 5 Noroeste 13 Nordeste 0 -- -- 18
2020-10-07 15:00:00 29.1 6 Nordeste 17 Sudeste 0 -- -- 20
2020-10-07 14:00:00 28.5 8 Sudeste 15 Nordeste 0 -- -- 24
2020-10-07 13:00:00 27.4 5 Este 16 Este 0 -- -- 28
2020-10-07 12:00:00 26.3 5 Nordeste 12 Nordeste 0 -- -- 31
2020-10-07 11:00:00 24.2 5 Nordeste 10 Nordeste 0 -- -- 41
2020-10-07 10:00:00 20.5 8 Nordeste 14 Norte 0 -- -- 52
2020-10-07 09:00:00 18.9 10 Nordeste 16 Nordeste 0 -- -- 55
2020-10-07 08:00:00 18.5 9 Norte 13 Norte 0 -- -- 56
2020-10-07 07:00:00 18.9 11 Norte 23 Norte 0 -- -- 55
2020-10-07 06:00:00 19 13 Nordeste 17 Norte 0 -- -- 53
2020-10-07 05:00:00 19.2 11 Norte 19 Norte 0 -- -- 53
2020-10-07 04:00:00 19.3 14 Norte 18 Norte 0 -- -- 55
2020-10-07 03:00:00 19 11 Norte 14 Norte 0 -- -- 57
2020-10-07 02:00:00 18.4 5 Norte 8 Nordeste 0 -- -- 60
2020-10-07 01:00:00 19 5 Norte 11 Norte 0 -- -- 59
2020-10-07 00:00:00 20 5 Norte 8 Nordeste 0 -- -- 55
2020-10-06 23:00:00 20.7 6 Norte 16 Nordeste 0 -- -- 53
2020-10-06 22:00:00 21.7 9 Nordeste 16 Norte 0 -- -- 50
2020-10-06 21:00:00 22.8 12 Norte 19 Norte 0 -- -- 47
2020-10-06 20:00:00 24.6 13 Norte 17 Nordeste 0 -- -- 42
2020-10-06 19:00:00 27.1 10 Nordeste 21 Nordeste 0 -- -- 35
2020-10-06 18:00:00 27.5 14 Norte 22 Norte 0 -- -- 32
2020-10-06 17:00:00 27.5 11 Nordeste 28 Norte 0 -- -- 32
2020-10-06 16:00:00 26.8 10 Norte 24 Norte 0 -- -- 34
2020-10-06 15:00:00 26.1 13 Norte 23 Noroeste 0 -- -- 37
2020-10-06 14:00:00 24.9 9 Norte 18 Norte 0 -- -- 38
2020-10-06 13:00:00 23.5 6 Nordeste 19 Nordeste 0 -- -- 42
2020-10-06 12:00:00 22.1 7 Norte 14 Norte 0 -- -- 44
2020-10-06 11:00:00 20.8 3 Norte 9 Norte 0 -- -- 49
2020-10-06 10:00:00 17.8 7 Nordeste 10 Nordeste 0 -- -- 62
2020-10-06 09:00:00 15.1 6 Nordeste 10 Nordeste 0 -- -- 71
2020-10-06 08:00:00 14.6 8 Nordeste 15 Norte 0 -- -- 73
2020-10-06 07:00:00 13.6 6 Norte 12 Norte 0 -- -- 75
2020-10-06 06:00:00 13.3 3 Norte 4 Norte 0 -- -- 76
2020-10-06 05:00:00 13.3 3 Norte 5 Norte 0 -- -- 76
2020-10-06 04:00:00 13.6 3 Norte 9 Norte 0 -- -- 74
2020-10-06 03:00:00 13.6 4 Norte 15 Norte 0 -- -- 73
2020-10-06 02:00:00 13.9 4 Norte 7 Norte 0 -- -- 71
2020-10-06 01:00:00 13.8 4 Norte 9 Norte 0 -- -- 68
2020-10-06 00:00:00 14.6 5 Norte 12 Norte 0 -- -- 61
2020-10-05 23:00:00 15.7 11 Norte 14 Norte 0 -- -- 55
2020-10-05 22:00:00 16.3 7 Norte 11 Norte 0 -- -- 51
2020-10-05 21:00:00 17.5 3 Norte 20 Noroeste 0 -- -- 46
2020-10-05 20:00:00 19.6 14 Norte 38 Norte 0 -- -- 38
2020-10-05 19:00:00 21.3 21 Norte 33 Norte 0 -- -- 30
2020-10-05 18:00:00 21.9 16 Noroeste 31 Norte 0 -- -- 30
2020-10-05 17:00:00 21.9 19 Norte 32 Norte 0 -- -- 34
2020-10-05 16:00:00 22 20 Norte 38 Noroeste 0 -- -- 35
2020-10-05 15:00:00 20.7 14 Noroeste 26 Norte 0 -- -- 37
2020-10-05 14:00:00 19 5 Sudoeste 20 Norte 0 -- -- 42
2020-10-05 13:00:00 17.5 9 Norte 25 Noroeste 0 -- -- 48
2020-10-05 12:00:00 16.4 13 Noroeste 24 Norte 0 -- -- 54
2020-10-05 11:00:00 14.3 11 Norte 20 Noroeste 0 -- -- 65
2020-10-05 10:00:00 12.6 12 Norte 24 Norte 0 -- -- 79
2020-10-05 09:00:00 10.5 6 Norte 13 Norte 0 -- -- 88
2020-10-05 08:00:00 10.4 5 Norte 16 Norte 0 -- -- 83
2020-10-05 07:00:00 10.7 13 Norte 20 Norte 0 -- -- 80
2020-10-05 06:00:00 11.1 13 Norte 31 Norte 0 -- -- 74
2020-10-05 05:00:00 11.3 17 Norte 27 Norte 0 -- -- 71
2020-10-05 04:00:00 11.6 15 Norte 21 Norte 0 -- -- 68
2020-10-05 03:00:00 12 8 Noroeste 18 Noroeste 0 -- -- 64
2020-10-05 02:00:00 12.8 13 Norte 26 Norte 0 -- -- 60
2020-10-05 01:00:00 14.1 21 Noroeste 31 Noroeste 0 -- -- 55
2020-10-05 00:00:00 14.8 15 Noroeste 28 Norte 0 -- -- 53
2020-10-04 23:00:00 13.7 12 Norte 15 Norte 0 -- -- 61
2020-10-04 22:00:00 14 8 Norte 13 Noroeste 0 -- -- 62
2020-10-04 21:00:00 15.3 8 Norte 18 Norte 0 -- -- 60
2020-10-04 20:00:00 16.7 13 Noroeste 30 Noroeste 0 -- -- 56
2020-10-04 19:00:00 17.7 21 Norte 42 Norte 0 -- -- 55
2020-10-04 18:00:00 19.4 19 Noroeste 32 Noroeste 0 -- -- 57
2020-10-04 17:00:00 20.8 15 Oeste 35 Oeste 0 -- -- 54
2020-10-04 16:00:00 20.7 15 Oeste 30 Oeste 0 -- -- 52
2020-10-04 15:00:00 19.9 13 Oeste 24 Oeste 0 -- -- 50
2020-10-04 14:00:00 19.7 11 Oeste 21 Oeste 0 -- -- 48
2020-10-04 13:00:00 17.6 10 Noroeste 24 Oeste 0 -- -- 55
2020-10-04 12:00:00 16.4 10 Oeste 21 Oeste 0 -- -- 59
2020-10-04 11:00:00 14.7 7 Noroeste 13 Noroeste 0 -- -- 63
2020-10-04 10:00:00 12.6 0 Calma 4 Noroeste 0 -- -- 76
2020-10-04 09:00:00 9.3 0 Calma 3 Oeste 0 -- -- 88
2020-10-04 08:00:00 9 2 Oeste 4 Oeste 0 -- -- 86
2020-10-04 07:00:00 9.3 3 Norte 5 Norte 0 -- -- 86
2020-10-04 06:00:00 9.3 4 Norte 6 Norte 0 -- -- 85
2020-10-04 05:00:00 9.6 4 Norte 5 Norte 0 -- -- 83
2020-10-04 04:00:00 10 2 Norte 7 Norte 0 -- -- 81
2020-10-04 03:00:00 10.4 4 Norte 8 Noroeste 0 -- -- 76
2020-10-04 02:00:00 11.1 4 Norte 8 Norte 0 -- -- 70
2020-10-04 01:00:00 12.3 2 Norte 9 Noroeste 0 -- -- 62
2020-10-04 00:00:00 13.4 4 Noroeste 10 Noroeste 0 -- -- 55
2020-10-03 23:00:00 13.3 0 Calma 5 Noroeste 0 -- -- 54
2020-10-03 22:00:00 13.5 3 Noroeste 10 Norte 0 -- -- 53
2020-10-03 21:00:00 15.6 10 Noroeste 20 Noroeste 0 -- -- 45
2020-10-03 20:00:00 16.7 12 Noroeste 23 Noroeste 0 -- -- 40
2020-10-03 19:00:00 17.9 14 Noroeste 27 Noroeste 0 -- -- 36
2020-10-03 18:00:00 18.8 14 Noroeste 33 Noroeste 0 -- -- 33
2020-10-03 17:00:00 18.4 13 Noroeste 33 Oeste 0 -- -- 36
2020-10-03 16:00:00 18.8 16 Noroeste 32 Norte 0 -- -- 33
2020-10-03 15:00:00 18.4 18 Norte 33 Norte 0 -- -- 34
2020-10-03 14:00:00 17.7 23 Norte 39 Norte 0 -- -- 35
2020-10-03 13:00:00 16.4 25 Norte 40 Noroeste 0 -- -- 40
2020-10-03 12:00:00 14.8 20 Norte 33 Noroeste 0 -- -- 57
2020-10-03 11:00:00 12.7 18 Norte 27 Norte 0 -- -- 74
2020-10-03 10:00:00 10.7 18 Noroeste 23 Noroeste 0 -- -- 84
2020-10-03 09:00:00 8.4 7 Norte 17 Norte 0 -- -- 92
2020-10-03 08:00:00 8.5 10 Noroeste 18 Norte 0 -- -- 91
2020-10-03 07:00:00 8.5 5 Noroeste 12 Noroeste 0 -- -- 88
2020-10-03 06:00:00 8.9 4 Noroeste 18 Noroeste 0 -- -- 86
2020-10-03 05:00:00 9.2 8 Noroeste 21 Noroeste 0 -- -- 82
2020-10-03 04:00:00 9.3 8 Noroeste 21 Noroeste 0 -- -- 80
2020-10-03 03:00:00 9.5 11 Noroeste 18 Norte 0 -- -- 78
2020-10-03 02:00:00 10.2 8 Noroeste 25 Noroeste 0 -- -- 74
2020-10-03 01:00:00 10.6 7 Noroeste 19 Noroeste 0 -- -- 71
2020-10-03 00:00:00 11.3 6 Noroeste 20 Noroeste 0 -- -- 67
2020-10-02 23:00:00 12 9 Noroeste 22 Noroeste 0 -- -- 64
2020-10-02 22:00:00 12.9 12 Noroeste 27 Noroeste 0 -- -- 67
2020-10-02 21:00:00 13.8 15 Noroeste 35 Noroeste 0 -- -- 64
2020-10-02 20:00:00 14.6 20 Noroeste 43 Noroeste 0 -- -- 62
2020-10-02 19:00:00 15.1 31 Norte 53 Noroeste 0 -- -- 70
2020-10-02 18:00:00 16.3 23 Noroeste 44 Noroeste 0.2 -- -- 74
2020-10-02 17:00:00 16.2 31 Noroeste 50 Noroeste 0 -- -- 84
2020-10-02 16:00:00 17.9 24 Oeste 54 Noroeste 0 -- -- 79
2020-10-02 15:00:00 17.1 22 Noroeste 45 Oeste 0.4 -- -- 90
2020-10-02 14:00:00 17.6 21 Oeste 53 Oeste 1.2 -- -- 96
2020-10-02 13:00:00 16.6 15 Sudoeste 45 Oeste 1.6 -- -- 96
2020-10-02 12:00:00 15.7 19 Sudoeste 35 Sudoeste 2.2 -- -- 96
2020-10-02 11:00:00 15.1 22 Sudoeste 35 Sudoeste 1 -- -- 95
2020-10-02 10:00:00 15.3 19 Sudoeste 30 Sudoeste 0 -- -- 91
2020-10-02 09:00:00 14.6 12 Sudoeste 26 Sudoeste 0 -- -- 92
2020-10-02 08:00:00 14.3 13 Oeste 27 Oeste 0 -- -- 91
2020-10-02 07:00:00 14.1 12 Oeste 28 Oeste 0 -- -- 87
2020-10-02 06:00:00 14 10 Noroeste 22 Noroeste 0 -- -- 80
2020-10-02 05:00:00 14.4 12 Noroeste 36 Noroeste 0 -- -- 74
2020-10-02 04:00:00 14.3 18 Noroeste 38 Noroeste 0 -- -- 72
2020-10-02 03:00:00 14.6 16 Noroeste 31 Noroeste 0 -- -- 70
2020-10-02 02:00:00 15.3 16 Noroeste 25 Noroeste 0 -- -- 64
2020-10-02 01:00:00 16 12 Noroeste 31 Norte 0 -- -- 61
2020-10-02 00:00:00 16.9 18 Noroeste 35 Noroeste 0 -- -- 56
2020-10-01 23:00:00 17.8 17 Noroeste 28 Noroeste 0 -- -- 53
2020-10-01 22:00:00 18.8 13 Noroeste 35 Noroeste 0 -- -- 50
2020-10-01 21:00:00 19.8 13 Noroeste 28 Noroeste 0 -- -- 49
2020-10-01 20:00:00 20.9 13 Noroeste 27 Noroeste 0 -- -- 47
2020-10-01 19:00:00 22.2 15 Noroeste 34 Noroeste 0 -- -- 45
2020-10-01 18:00:00 23.1 15 Noroeste 37 Noroeste 0 -- -- 44
2020-10-01 17:00:00 24.4 14 Oeste 33 Noroeste 0 -- -- 43
2020-10-01 16:00:00 25.1 14 Noroeste 30 Noroeste 0 -- -- 41
2020-10-01 15:00:00 24.3 10 Noroeste 31 Norte 0 -- -- 43
2020-10-01 14:00:00 23 19 Noroeste 31 Norte 0 -- -- 47
2020-10-01 13:00:00 21.7 14 Noroeste 30 Noroeste 0 -- -- 48
2020-10-01 12:00:00 20.2 17 Norte 24 Noroeste 0 -- -- 51
2020-10-01 11:00:00 16.7 10 Norte 17 Norte 0 -- -- 60
2020-10-01 10:00:00 13.9 13 Norte 22 Norte 0 -- -- 73
2020-10-01 09:00:00 11.4 5 Norte 26 Noroeste 0 -- -- 87
2020-10-01 08:00:00 11.6 12 Noroeste 19 Noroeste 0 -- -- 90
2020-10-01 07:00:00 13 6 Norte 18 Noroeste 0 -- -- 84
2020-10-01 06:00:00 14.1 16 Norte 24 Norte 0 -- -- 81
2020-10-01 05:00:00 14.5 19 Norte 23 Norte 0 -- -- 82
2020-10-01 04:00:00 15.1 10 Noroeste 18 Noroeste 0 -- -- 76
2020-10-01 03:00:00 16.5 15 Noroeste 24 Norte 0 -- -- 68
2020-10-01 02:00:00 17.1 13 Noroeste 21 Noroeste 0 -- -- 62
2020-10-01 01:00:00 17.1 12 Noroeste 15 Noroeste 0 -- -- 74
2020-10-01 00:00:00 17.6 6 Norte 16 Norte 0 -- -- 80